createdAt,value
2023-03-29T00:03:54.204Z,1.40
2023-03-29T00:09:19.099Z,1.33
2023-03-29T00:14:44.110Z,1.20
2023-03-29T00:20:12.202Z,1.48
2023-03-29T00:25:36.107Z,1.10
2023-03-29T00:31:01.504Z,1.25
2023-03-29T00:36:31.130Z,1.20
2023-03-29T00:41:57.126Z,1.20
2023-03-29T00:47:21.105Z,1.02
2023-03-29T00:52:51.108Z,1.00
2023-03-29T00:58:17.155Z,1.10
2023-03-29T01:03:53.257Z,1.20
2023-03-29T01:09:24.098Z,1.20
2023-03-29T01:14:55.152Z,1.20
2023-03-29T01:20:27.177Z,1.10
2023-03-29T01:26:10.137Z,1.30
2023-03-29T01:31:42.209Z,1.08
2023-03-29T01:37:11.150Z,1.30
2023-03-29T01:42:49.157Z,1.15
2023-03-29T01:48:23.105Z,0.88
2023-03-29T01:53:54.167Z,0.90
2023-03-29T01:59:26.151Z,1.00
2023-03-29T02:04:59.142Z,1.20
2023-03-29T02:10:26.197Z,1.02
2023-03-29T02:15:54.159Z,1.02
2023-03-29T02:21:25.134Z,1.10
2023-03-29T02:26:57.322Z,1.15
2023-03-29T02:32:28.164Z,0.80
2023-03-29T02:37:51.159Z,0.93
2023-03-29T02:43:17.157Z,1.20
2023-03-29T02:48:43.158Z,1.10
2023-03-29T02:54:16.196Z,1.15
2023-03-29T02:59:42.136Z,1.20
2023-03-29T03:05:07.434Z,1.20
2023-03-29T03:10:35.262Z,1.20
2023-03-29T03:16:01.191Z,1.35
2023-03-29T03:21:27.213Z,1.38
2023-03-29T03:26:57.181Z,1.30
2023-03-29T03:32:22.217Z,1.10
2023-03-29T03:38:19.168Z,1.17
2023-03-29T03:43:57.313Z,1.40
2023-03-29T03:49:23.208Z,1.40
2023-03-29T03:54:48.171Z,1.70
2023-03-29T04:00:34.219Z,1.55
2023-03-29T04:06:19.312Z,1.80
2023-03-29T04:12:22.200Z,2.00
2023-03-29T04:17:50.246Z,2.03
2023-03-29T04:23:18.217Z,2.10
2023-03-29T04:28:49.211Z,2.10
2023-03-29T04:34:34.200Z,2.13
2023-03-29T04:39:59.214Z,2.20
2023-03-29T04:45:36.221Z,2.28
2023-03-29T04:51:09.233Z,2.30
2023-03-29T04:56:35.197Z,2.28
2023-03-29T05:02:29.240Z,2.30
2023-03-29T05:07:57.229Z,2.38
2023-03-29T05:13:49.223Z,2.35
2023-03-29T05:19:16.225Z,2.40
2023-03-29T05:24:44.253Z,2.47
2023-03-29T05:30:18.252Z,2.60
2023-03-29T05:35:50.250Z,2.13
2023-03-29T05:41:18.230Z,2.10
2023-03-29T05:47:02.334Z,1.90
2023-03-29T05:52:26.240Z,2.10
2023-03-29T05:57:54.255Z,2.25
2023-03-29T06:03:25.618Z,1.83
2023-03-29T06:08:51.211Z,2.33
2023-03-29T06:14:34.267Z,2.00
2023-03-29T06:20:26.221Z,2.10
2023-03-29T06:25:58.251Z,2.10
2023-03-29T06:31:26.333Z,2.10
2023-03-29T06:36:52.246Z,1.80
2023-03-29T06:42:21.455Z,2.20
2023-03-29T06:48:09.309Z,2.00
2023-03-29T06:53:35.269Z,1.98
2023-03-29T06:59:01.257Z,2.03
2023-03-29T07:04:58.242Z,1.83
2023-03-29T07:10:28.346Z,1.88
2023-03-29T07:16:14.456Z,1.92
2023-03-29T07:21:41.326Z,2.03
2023-03-29T07:27:12.281Z,2.13
2023-03-29T07:32:40.338Z,1.95
2023-03-29T07:38:22.279Z,1.90
2023-03-29T07:43:57.276Z,2.30
2023-03-29T07:49:22.324Z,2.20
2023-03-29T07:54:50.319Z,2.03
2023-03-29T08:06:18.441Z,1.70
2023-03-29T08:11:46.281Z,1.83
2023-03-29T08:22:38.312Z,2.20
2023-03-29T08:28:26.343Z,2.13
2023-03-29T08:33:51.300Z,2.40
2023-03-29T08:39:45.315Z,1.40
2023-03-29T08:45:50.918Z,1.50
2023-03-29T08:51:24.307Z,1.48
2023-03-29T08:56:52.547Z,1.40
2023-03-29T09:02:28.428Z,1.45
2023-03-29T09:07:57.343Z,1.40
2023-03-29T09:13:38.302Z,1.40
2023-03-29T09:19:17.363Z,1.27
2023-03-29T09:24:59.353Z,1.30
2023-03-29T09:30:35.308Z,1.30
2023-03-29T09:36:11.338Z,1.40
2023-03-29T09:41:43.321Z,1.20
2023-03-29T09:47:17.365Z,1.30
2023-03-29T09:52:44.320Z,1.10
2023-03-29T09:58:23.360Z,1.27
2023-03-29T10:03:49.353Z,1.50
2023-03-29T10:09:25.339Z,1.45
2023-03-29T10:15:05.362Z,1.40
2023-03-29T10:20:30.416Z,1.27
2023-03-29T10:25:58.370Z,1.40
2023-03-29T10:31:35.392Z,1.30
2023-03-29T10:37:06.351Z,1.20
2023-03-29T10:42:35.364Z,1.40
2023-03-29T10:48:00.399Z,1.10
2023-03-29T10:53:31.427Z,1.00
2023-03-29T10:59:14.392Z,0.93
2023-03-29T11:04:50.572Z,1.20
2023-03-29T11:10:33.409Z,0.90
2023-03-29T11:16:12.435Z,0.98
2023-03-29T11:21:44.530Z,0.80
2023-03-29T11:27:22.611Z,1.00
2023-03-29T11:33:01.523Z,0.90
2023-03-29T11:38:36.403Z,1.00
2023-03-29T11:44:05.374Z,0.80
2023-03-29T11:49:36.392Z,0.90
2023-03-29T11:55:05.390Z,0.80
2023-03-29T12:00:34.652Z,0.80
2023-03-29T12:06:11.398Z,0.80
2023-03-29T12:11:48.841Z,0.70
2023-03-29T12:17:19.404Z,1.00
2023-03-29T12:22:48.404Z,1.00
2023-03-29T12:28:40.455Z,0.80
2023-03-29T12:39:54.461Z,0.90
2023-03-29T12:45:49.448Z,0.52
2023-03-29T12:51:17.546Z,0.70
2023-03-29T12:56:50.429Z,0.57
2023-03-29T13:02:17.527Z,0.70
2023-03-29T13:07:55.434Z,0.63
2023-03-29T13:13:40.529Z,0.82
2023-03-29T13:19:19.464Z,0.90
2023-03-29T13:25:13.452Z,0.40
2023-03-29T13:31:00.844Z,0.50
2023-03-29T13:36:36.518Z,0.30
2023-03-29T13:42:05.750Z,0.30
2023-03-29T13:48:02.620Z,0.40
2023-03-29T13:53:40.619Z,0.38
2023-03-29T13:59:14.491Z,0.40
2023-03-29T14:04:46.472Z,0.50
2023-03-29T14:10:11.480Z,0.35
2023-03-29T14:15:39.578Z,0.40
2023-03-29T14:21:10.476Z,0.40
2023-03-29T14:26:43.504Z,0.35
2023-03-29T14:32:25.538Z,0.40
2023-03-29T14:37:54.548Z,0.30
2023-03-29T14:43:23.949Z,0.30
2023-03-29T14:48:48.475Z,0.40
2023-03-29T14:54:18.490Z,0.40
2023-03-29T14:59:47.561Z,0.40
2023-03-29T15:05:14.549Z,0.40
2023-03-29T15:10:47.491Z,0.60
2023-03-29T15:16:16.598Z,0.50
2023-03-29T15:21:43.515Z,0.47
2023-03-29T15:27:19.609Z,0.40
2023-03-29T15:32:45.617Z,0.50
2023-03-29T15:38:11.560Z,0.50
2023-03-29T15:43:40.723Z,0.50
2023-03-29T15:49:04.568Z,0.50
2023-03-29T15:54:31.540Z,0.50
2023-03-29T16:00:00.567Z,0.63
2023-03-29T16:05:30.567Z,0.60
2023-03-29T16:10:56.526Z,0.60
2023-03-29T16:16:25.885Z,0.70
2023-03-29T16:21:53.973Z,0.60
2023-03-29T16:27:25.789Z,0.70
2023-03-29T16:32:53.640Z,2.00
2023-03-29T16:38:18.629Z,1.00
2023-03-29T16:43:45.543Z,1.40
2023-03-29T16:49:14.568Z,1.30
2023-03-29T16:54:36.574Z,1.15
2023-03-29T17:00:01.782Z,1.17
2023-03-29T17:05:28.569Z,1.10
2023-03-29T17:10:54.580Z,1.30
2023-03-29T17:16:20.729Z,0.90
2023-03-29T17:21:48.593Z,0.80
2023-03-29T17:27:13.788Z,0.90
2023-03-29T17:32:38.622Z,0.93
2023-03-29T17:38:07.574Z,0.70
2023-03-29T17:43:32.601Z,0.80
2023-03-29T17:48:57.575Z,0.70
2023-03-29T17:54:25.789Z,0.90
2023-03-29T17:59:49.614Z,0.90
2023-03-29T18:05:16.602Z,1.02
2023-03-29T18:10:44.600Z,0.90
2023-03-29T18:16:09.680Z,1.00
2023-03-29T18:21:35.628Z,0.90
2023-03-29T18:27:03.624Z,0.70
2023-03-29T18:32:35.695Z,0.90
2023-03-29T18:38:02.666Z,0.95
2023-03-29T18:43:29.680Z,0.95
2023-03-29T18:48:55.862Z,0.95
2023-03-29T18:54:20.663Z,1.00
2023-03-29T18:59:48.633Z,0.90
2023-03-29T19:05:12.652Z,1.08
2023-03-29T19:10:38.676Z,1.30
2023-03-29T19:16:06.801Z,1.05
2023-03-29T19:21:31.639Z,0.98
2023-03-29T19:26:58.679Z,1.05
2023-03-29T19:32:33.769Z,1.10
2023-03-29T19:37:58.656Z,1.00
2023-03-29T19:43:23.645Z,1.10
2023-03-29T19:48:52.657Z,1.10
2023-03-29T19:54:19.670Z,1.02
2023-03-29T19:59:47.643Z,0.90
2023-03-29T20:05:16.673Z,0.93
2023-03-29T20:10:41.683Z,1.00
2023-03-29T20:16:05.659Z,1.23
2023-03-29T20:21:33.713Z,1.00
2023-03-29T20:26:58.721Z,1.20
2023-03-29T20:32:29.699Z,1.00
2023-03-29T20:37:57.702Z,1.00
2023-03-29T20:43:25.699Z,1.10
2023-03-29T20:48:59.674Z,1.10
2023-03-29T20:54:26.719Z,0.90
2023-03-29T20:59:52.754Z,0.90
2023-03-29T21:05:17.701Z,1.00
2023-03-29T21:10:48.684Z,0.90
2023-03-29T21:16:12.776Z,1.00
2023-03-29T21:21:40.716Z,1.00
2023-03-29T21:27:07.716Z,1.10
2023-03-29T21:32:38.757Z,1.00
2023-03-29T21:38:03.812Z,1.13
2023-03-29T21:43:30.712Z,1.00
2023-03-29T21:48:55.735Z,1.10
2023-03-29T21:54:20.752Z,1.10
2023-03-29T21:59:50.745Z,0.90
2023-03-29T22:05:15.704Z,1.10
2023-03-29T22:10:40.704Z,1.10
2023-03-29T22:16:12.808Z,0.98
2023-03-29T22:21:39.753Z,1.00
2023-03-29T22:27:05.738Z,1.00
2023-03-29T22:32:39.769Z,1.00
2023-03-29T22:38:04.788Z,1.10
2023-03-29T22:43:28.756Z,1.10
2023-03-29T22:48:56.757Z,1.10
2023-03-29T22:54:20.776Z,1.02
2023-03-29T22:59:45.772Z,1.10
2023-03-29T23:05:13.795Z,0.90
2023-03-29T23:10:38.755Z,1.10
2023-03-29T23:16:06.008Z,1.05
2023-03-29T23:21:34.770Z,1.42
2023-03-29T23:26:58.774Z,1.13
2023-03-29T23:32:31.837Z,1.10
2023-03-29T23:37:59.785Z,1.00
2023-03-29T23:43:24.749Z,1.15
2023-03-29T23:48:52.968Z,1.25
2023-03-29T23:54:21.756Z,1.00
2023-03-29T23:59:46.767Z,1.20
